createdAt,value
2023-04-12T00:00:24.980Z,364.00
2023-04-12T00:01:24.979Z,365.00
2023-04-12T00:02:25.092Z,360.00
2023-04-12T00:03:25.173Z,361.00
2023-04-12T00:04:25.176Z,363.00
2023-04-12T00:05:25.175Z,364.00
2023-04-12T00:06:25.004Z,365.00
2023-04-12T00:07:25.017Z,365.00
2023-04-12T00:08:25.023Z,367.00
2023-04-12T00:09:25.027Z,365.00
2023-04-12T00:10:25.062Z,362.00
2023-04-12T00:11:25.053Z,362.00
2023-04-12T00:12:25.077Z,362.00
2023-04-12T00:13:25.076Z,362.00
2023-04-12T00:14:25.065Z,363.00
2023-04-12T00:15:25.079Z,362.00
2023-04-12T00:16:25.176Z,365.00
2023-04-12T00:17:25.082Z,365.00
2023-04-12T00:18:25.400Z,363.00
2023-04-12T00:19:25.100Z,361.00
2023-04-12T00:20:25.098Z,362.00
2023-04-12T00:21:25.134Z,362.00
2023-04-12T00:22:25.124Z,362.00
2023-04-12T00:23:25.128Z,361.00
2023-04-12T00:24:25.142Z,358.00
2023-04-12T00:25:25.175Z,359.00
2023-04-12T00:26:25.197Z,361.00
2023-04-12T00:27:25.207Z,362.00
2023-04-12T00:28:25.229Z,363.00
2023-04-12T00:29:25.287Z,365.00
2023-04-12T00:30:25.253Z,366.00
2023-04-12T00:31:25.335Z,367.00
2023-04-12T00:32:25.279Z,367.00
2023-04-12T00:33:25.294Z,368.00
2023-04-12T00:34:25.302Z,369.00
2023-04-12T00:35:25.311Z,368.00
2023-04-12T00:36:25.344Z,369.00
2023-04-12T00:37:25.352Z,367.00
2023-04-12T00:38:25.349Z,362.00
2023-04-12T00:39:25.374Z,360.00
2023-04-12T00:40:25.399Z,360.00
2023-04-12T00:41:25.393Z,361.00
2023-04-12T00:42:25.390Z,363.00
2023-04-12T00:43:25.392Z,365.00
2023-04-12T00:44:25.424Z,363.00
2023-04-12T00:45:25.408Z,364.00
2023-04-12T00:46:25.512Z,362.00
2023-04-12T00:47:25.504Z,360.00
2023-04-12T00:48:25.453Z,360.00
2023-04-12T00:49:25.478Z,360.00
2023-04-12T00:50:25.447Z,360.00
2023-04-12T00:51:25.480Z,359.00
2023-04-12T00:52:25.493Z,361.00
2023-04-12T00:53:25.481Z,362.00
2023-04-12T00:54:25.481Z,364.00
2023-04-12T00:55:25.461Z,364.00
2023-04-12T00:56:25.481Z,365.00
2023-04-12T00:57:25.508Z,366.00
2023-04-12T00:58:25.497Z,366.00
2023-04-12T00:59:25.500Z,366.00
2023-04-12T01:00:25.556Z,364.00
2023-04-12T01:01:25.510Z,364.00
2023-04-12T01:02:25.609Z,363.00
2023-04-12T01:03:25.708Z,363.00
2023-04-12T01:04:25.544Z,364.00
2023-04-12T01:05:25.583Z,364.00
2023-04-12T01:06:25.549Z,363.00
2023-04-12T01:07:25.553Z,361.00
2023-04-12T01:08:25.560Z,360.00
2023-04-12T01:09:25.558Z,359.00
2023-04-12T01:10:25.572Z,357.00
2023-04-12T01:11:25.612Z,357.00
2023-04-12T01:12:25.608Z,357.00
2023-04-12T01:13:25.619Z,358.00
2023-04-12T01:14:25.609Z,359.00
2023-04-12T01:15:25.616Z,360.00
2023-04-12T01:16:25.674Z,359.00
2023-04-12T01:17:25.703Z,359.00
2023-04-12T01:18:25.631Z,358.00
2023-04-12T01:19:25.641Z,357.00
2023-04-12T01:20:25.656Z,359.00
2023-04-12T01:21:25.672Z,359.00
2023-04-12T01:22:25.653Z,359.00
2023-04-12T01:23:25.689Z,358.00
2023-04-12T01:24:25.692Z,357.00
2023-04-12T01:25:25.673Z,354.00
2023-04-12T01:26:25.760Z,355.00
2023-04-12T01:27:25.698Z,354.00
2023-04-12T01:28:25.699Z,354.00
2023-04-12T01:29:25.721Z,353.00
2023-04-12T01:30:25.727Z,350.00
2023-04-12T01:31:25.706Z,353.00
2023-04-12T01:32:25.714Z,354.00
2023-04-12T01:33:25.692Z,357.00
2023-04-12T01:34:25.700Z,357.00
2023-04-12T01:35:25.754Z,358.00
2023-04-12T01:36:25.702Z,357.00
2023-04-12T01:37:25.726Z,356.00
2023-04-12T01:38:25.711Z,353.00
2023-04-12T01:39:25.713Z,353.00
2023-04-12T01:40:25.731Z,356.00
2023-04-12T01:41:25.733Z,357.00
2023-04-12T01:42:25.738Z,356.00
2023-04-12T01:43:25.721Z,356.00
2023-04-12T01:44:25.718Z,359.00
2023-04-12T01:45:25.742Z,360.00
2023-04-12T01:46:25.732Z,360.00
2023-04-12T01:47:25.779Z,356.00
2023-04-12T01:48:25.708Z,356.00
2023-04-12T01:49:25.741Z,354.00
2023-04-12T01:50:25.737Z,354.00
2023-04-12T01:51:25.715Z,358.00
2023-04-12T01:52:25.711Z,358.00
2023-04-12T01:53:25.708Z,359.00
2023-04-12T01:54:25.721Z,357.00
2023-04-12T01:55:25.730Z,356.00
2023-04-12T01:56:25.727Z,357.00
2023-04-12T01:57:25.744Z,359.00
2023-04-12T01:58:25.718Z,358.00
2023-04-12T01:59:25.727Z,358.00
2023-04-12T02:00:25.732Z,360.00
2023-04-12T02:01:25.838Z,360.00
2023-04-12T02:02:25.887Z,358.00
2023-04-12T02:03:25.843Z,359.00
2023-04-12T02:04:25.753Z,358.00
2023-04-12T02:05:25.748Z,358.00
2023-04-12T02:06:25.774Z,359.00
2023-04-12T02:07:25.773Z,360.00
2023-04-12T02:08:25.752Z,360.00
2023-04-12T02:09:25.739Z,361.00
2023-04-12T02:10:25.776Z,358.00
2023-04-12T02:11:25.776Z,360.00
2023-04-12T02:12:25.752Z,362.00
2023-04-12T02:13:25.780Z,361.00
2023-04-12T02:14:25.757Z,363.00
2023-04-12T02:15:25.780Z,360.00
2023-04-12T02:16:25.836Z,363.00
2023-04-12T02:17:25.759Z,360.00
2023-04-12T02:18:25.774Z,358.00
2023-04-12T02:19:25.776Z,358.00
2023-04-12T02:20:25.769Z,356.00
2023-04-12T02:21:25.779Z,357.00
2023-04-12T02:22:25.792Z,359.00
2023-04-12T02:23:25.803Z,359.00
2023-04-12T02:24:25.824Z,362.00
2023-04-12T02:25:25.819Z,361.00
2023-04-12T02:26:25.829Z,360.00
2023-04-12T02:27:25.846Z,360.00
2023-04-12T02:28:25.832Z,358.00
2023-04-12T02:29:25.829Z,359.00
2023-04-12T02:30:25.923Z,360.00
2023-04-12T02:31:25.864Z,363.00
2023-04-12T02:32:25.904Z,362.00
2023-04-12T02:33:25.854Z,361.00
2023-04-12T02:34:25.849Z,361.00
2023-04-12T02:35:25.877Z,362.00
2023-04-12T02:36:25.869Z,361.00
2023-04-12T02:37:25.850Z,360.00
2023-04-12T02:38:25.839Z,356.00
2023-04-12T02:39:25.851Z,356.00
2023-04-12T02:40:25.845Z,356.00
2023-04-12T02:41:25.875Z,355.00
2023-04-12T02:42:25.836Z,356.00
2023-04-12T02:43:25.844Z,360.00
2023-04-12T02:44:25.854Z,362.00
2023-04-12T02:45:25.851Z,364.00
2023-04-12T02:46:25.923Z,362.00
2023-04-12T02:47:25.869Z,363.00
2023-04-12T02:48:25.838Z,363.00
2023-04-12T02:49:25.837Z,361.00
2023-04-12T02:50:25.834Z,361.00
2023-04-12T02:51:25.840Z,361.00
2023-04-12T02:52:25.837Z,363.00
2023-04-12T02:53:25.814Z,363.00
2023-04-12T02:54:25.843Z,364.00
2023-04-12T02:55:25.853Z,365.00
2023-04-12T02:56:25.842Z,364.00
2023-04-12T02:57:25.894Z,364.00
2023-04-12T02:58:25.872Z,362.00
2023-04-12T02:59:25.853Z,360.00
2023-04-12T03:00:25.874Z,362.00
2023-04-12T03:01:25.900Z,360.00
2023-04-12T03:02:25.962Z,359.00
2023-04-12T03:03:26.034Z,357.00
2023-04-12T03:04:26.000Z,357.00
2023-04-12T03:05:25.891Z,355.00
2023-04-12T03:06:25.857Z,353.00
2023-04-12T03:07:25.859Z,350.00
2023-04-12T03:08:25.868Z,350.00
2023-04-12T03:09:25.854Z,353.00
2023-04-12T03:10:25.851Z,353.00
2023-04-12T03:11:25.861Z,355.00
2023-04-12T03:12:25.888Z,355.00
2023-04-12T03:13:25.846Z,355.00
2023-04-12T03:14:25.868Z,355.00
2023-04-12T03:15:25.955Z,353.00
2023-04-12T03:16:25.850Z,353.00
2023-04-12T03:17:25.894Z,353.00
2023-04-12T03:18:25.872Z,353.00
2023-04-12T03:19:25.844Z,352.00
2023-04-12T03:20:25.843Z,352.00
2023-04-12T03:21:25.860Z,353.00
2023-04-12T03:22:25.852Z,353.00
2023-04-12T03:23:25.868Z,355.00
2023-04-12T03:24:25.876Z,354.00
2023-04-12T03:25:25.863Z,353.00
2023-04-12T03:26:25.870Z,353.00
2023-04-12T03:27:25.866Z,354.00
2023-04-12T03:28:25.872Z,354.00
2023-04-12T03:29:25.883Z,353.00
2023-04-12T03:30:25.870Z,355.00
2023-04-12T03:31:25.891Z,355.00
2023-04-12T03:32:25.925Z,359.00
2023-04-12T03:33:25.903Z,358.00
2023-04-12T03:34:25.893Z,357.00
2023-04-12T03:35:25.957Z,359.00
2023-04-12T03:36:25.892Z,360.00
2023-04-12T03:37:25.922Z,357.00
2023-04-12T03:38:25.900Z,357.00
2023-04-12T03:39:25.876Z,360.00
2023-04-12T03:40:25.901Z,363.00
2023-04-12T03:41:25.895Z,363.00
2023-04-12T03:42:33.259Z,362.00
2023-04-12T03:43:26.866Z,362.00
2023-04-12T03:44:25.868Z,362.00
2023-04-12T03:45:25.867Z,362.00
2023-04-12T03:46:25.914Z,361.00
2023-04-12T03:47:25.938Z,359.00
2023-04-12T03:48:25.829Z,360.00
2023-04-12T03:49:25.844Z,359.00
2023-04-12T03:50:25.838Z,357.00
2023-04-12T03:51:25.807Z,360.00
2023-04-12T03:52:25.819Z,358.00
2023-04-12T03:53:25.787Z,360.00
2023-04-12T03:54:25.782Z,360.00
2023-04-12T03:55:25.787Z,362.00
2023-04-12T03:56:25.809Z,362.00
2023-04-12T03:57:25.778Z,364.00
2023-04-12T03:58:25.780Z,361.00
2023-04-12T03:59:25.771Z,361.00
2023-04-12T04:00:25.771Z,362.00
2023-04-12T04:01:25.755Z,362.00
2023-04-12T04:02:25.964Z,365.00
2023-04-12T04:03:25.806Z,364.00
2023-04-12T04:04:25.834Z,366.00
2023-04-12T04:05:25.746Z,367.00
2023-04-12T04:06:25.731Z,366.00
2023-04-12T04:07:25.713Z,364.00
2023-04-12T04:08:25.702Z,363.00
2023-04-12T04:09:25.671Z,364.00
2023-04-12T04:10:25.698Z,363.00
2023-04-12T04:11:25.737Z,365.00
2023-04-12T04:12:25.676Z,366.00
2023-04-12T04:13:25.665Z,364.00
2023-04-12T04:14:25.686Z,366.00
2023-04-12T04:15:25.668Z,364.00
2023-04-12T04:16:25.727Z,362.00
2023-04-12T04:17:25.733Z,361.00
2023-04-12T04:18:25.712Z,364.00
2023-04-12T04:19:25.725Z,367.00
2023-04-12T04:20:27.341Z,368.00
2023-04-12T04:21:25.749Z,369.00
2023-04-12T04:22:25.754Z,368.00
2023-04-12T04:23:25.735Z,368.00
2023-04-12T04:24:25.736Z,365.00
2023-04-12T04:25:25.762Z,365.00
2023-04-12T04:26:25.725Z,364.00
2023-04-12T04:27:25.733Z,365.00
2023-04-12T04:28:25.735Z,364.00
2023-04-12T04:29:25.770Z,366.00
2023-04-12T04:30:25.738Z,368.00
2023-04-12T04:31:25.734Z,368.00
2023-04-12T04:32:25.780Z,366.00
2023-04-12T04:33:25.740Z,366.00
2023-04-12T04:34:25.722Z,365.00
2023-04-12T04:35:25.805Z,368.00
2023-04-12T04:36:25.737Z,366.00
2023-04-12T04:37:25.744Z,365.00
2023-04-12T04:38:25.818Z,364.00
2023-04-12T04:39:25.721Z,365.00
2023-04-12T04:40:25.738Z,365.00
2023-04-12T04:41:25.730Z,363.00
2023-04-12T04:42:25.731Z,365.00
2023-04-12T04:43:25.703Z,369.00
2023-04-12T04:44:25.706Z,366.00
2023-04-12T04:45:25.776Z,367.00
2023-04-12T04:46:25.777Z,368.00
2023-04-12T04:47:25.790Z,373.00
2023-04-12T04:48:25.774Z,376.00
2023-04-12T04:49:25.757Z,374.00
2023-04-12T04:50:25.782Z,374.00
2023-04-12T04:51:25.802Z,373.00
2023-04-12T04:52:25.789Z,372.00
2023-04-12T04:53:25.795Z,372.00
2023-04-12T04:54:25.814Z,369.00
2023-04-12T04:55:25.856Z,370.00
2023-04-12T04:56:25.849Z,369.00
2023-04-12T04:57:25.810Z,367.00
2023-04-12T04:58:25.826Z,369.00
2023-04-12T04:59:25.823Z,371.00
2023-04-12T05:00:25.828Z,370.00
2023-04-12T05:01:25.949Z,370.00
2023-04-12T05:02:25.933Z,367.00
2023-04-12T05:03:27.567Z,367.00
2023-04-12T05:04:25.870Z,369.00
2023-04-12T05:05:25.844Z,369.00
2023-04-12T05:06:25.862Z,371.00
2023-04-12T05:07:25.818Z,371.00
2023-04-12T05:08:25.818Z,372.00
2023-04-12T05:09:25.798Z,372.00
2023-04-12T05:10:25.827Z,371.00
2023-04-12T05:11:25.828Z,366.00
2023-04-12T05:12:25.782Z,377.00
2023-04-12T05:13:25.807Z,377.00
2023-04-12T05:14:30.993Z,373.00
2023-04-12T05:15:26.784Z,370.00
2023-04-12T05:16:25.779Z,365.00
2023-04-12T05:17:25.766Z,367.00
2023-04-12T05:18:25.791Z,370.00
2023-04-12T05:19:25.744Z,374.00
2023-04-12T05:20:25.760Z,376.00
2023-04-12T05:21:25.743Z,379.00
2023-04-12T05:22:25.734Z,381.00
2023-04-12T05:23:25.786Z,388.00
2023-04-12T05:24:25.717Z,390.00
2023-04-12T05:25:25.730Z,392.00
2023-04-12T05:26:25.712Z,392.00
2023-04-12T05:27:25.682Z,391.00
2023-04-12T05:28:25.701Z,402.00
2023-04-12T05:29:25.669Z,488.00
2023-04-12T05:30:25.696Z,499.00
2023-04-12T05:31:25.712Z,515.00
2023-04-12T05:32:25.709Z,500.00
2023-04-12T05:33:25.666Z,534.00
2023-04-12T05:34:25.663Z,511.00
2023-04-12T05:35:25.670Z,517.00
2023-04-12T05:36:25.802Z,537.00
2023-04-12T05:37:25.623Z,536.00
2023-04-12T05:38:25.823Z,552.00
2023-04-12T05:39:25.609Z,590.00
2023-04-12T05:40:25.594Z,590.00
2023-04-12T05:41:25.607Z,593.00
2023-04-12T05:42:25.623Z,589.00
2023-04-12T05:43:25.621Z,593.00
2023-04-12T05:44:25.640Z,604.00
2023-04-12T05:45:25.671Z,601.00
2023-04-12T05:46:25.718Z,594.00
2023-04-12T05:47:25.732Z,597.00
2023-04-12T05:48:25.768Z,602.00
2023-04-12T05:49:25.823Z,612.00
2023-04-12T05:50:25.893Z,659.00
2023-04-12T05:51:40.029Z,673.00
2023-04-12T05:52:26.944Z,685.00
2023-04-12T05:53:25.921Z,699.00
2023-04-12T05:54:25.935Z,751.00
2023-04-12T05:55:25.924Z,761.00
2023-04-12T05:56:25.936Z,774.00
2023-04-12T05:57:25.915Z,792.00
2023-04-12T05:58:25.890Z,797.00
2023-04-12T05:59:25.898Z,794.00
2023-04-12T06:00:25.880Z,688.00
2023-04-12T06:01:25.869Z,610.00
2023-04-12T06:02:26.569Z,610.00
2023-04-12T06:03:25.974Z,642.00
2023-04-12T06:04:34.804Z,628.00
2023-04-12T06:05:27.028Z,633.00
2023-04-12T06:06:25.957Z,594.00
2023-04-12T06:07:26.303Z,613.00
2023-04-12T06:08:25.926Z,610.00
2023-04-12T06:09:25.910Z,640.00
2023-04-12T06:10:25.913Z,633.00
2023-04-12T06:11:25.900Z,635.00
2023-04-12T06:12:25.896Z,649.00
2023-04-12T06:13:25.902Z,632.00
2023-04-12T06:14:25.908Z,622.00
2023-04-12T06:15:25.882Z,624.00
2023-04-12T06:16:25.893Z,639.00
2023-04-12T06:17:25.919Z,668.00
2023-04-12T06:18:25.914Z,654.00
2023-04-12T06:19:25.933Z,645.00
2023-04-12T06:20:26.012Z,642.00
2023-04-12T06:21:25.982Z,621.00
2023-04-12T06:22:26.015Z,610.00
2023-04-12T06:23:26.059Z,713.00
2023-04-12T06:24:26.074Z,628.00
2023-04-12T06:25:26.103Z,634.00
2023-04-12T06:26:26.988Z,612.00
2023-04-12T06:27:26.189Z,630.00
2023-04-12T06:28:26.234Z,665.00
2023-04-12T06:29:26.307Z,665.00
2023-04-12T06:30:26.331Z,668.00
2023-04-12T06:31:26.358Z,671.00
2023-04-12T06:32:26.440Z,595.00
2023-04-12T06:33:26.472Z,582.00
2023-04-12T06:34:26.479Z,602.00
2023-04-12T06:35:26.483Z,615.00
2023-04-12T06:36:26.539Z,699.00
2023-04-12T06:37:26.613Z,700.00
2023-04-12T06:38:26.654Z,704.00
2023-04-12T06:39:26.762Z,702.00
2023-04-12T06:40:26.846Z,700.00
2023-04-12T06:41:26.781Z,701.00
2023-04-12T06:42:26.795Z,704.00
2023-04-12T06:43:26.814Z,749.00
2023-04-12T06:44:26.826Z,777.00
2023-04-12T06:45:26.840Z,783.00
2023-04-12T06:46:26.886Z,799.00
2023-04-12T06:47:27.334Z,805.00
2023-04-12T06:48:26.860Z,815.00
2023-04-12T06:49:26.873Z,826.00
2023-04-12T06:50:26.905Z,837.00
2023-04-12T06:51:26.956Z,846.00
2023-04-12T06:52:27.046Z,854.00
2023-04-12T06:53:27.072Z,846.00
2023-04-12T06:54:27.114Z,851.00
2023-04-12T06:55:27.194Z,852.00
2023-04-12T06:56:27.215Z,855.00
2023-04-12T06:57:27.356Z,858.00
2023-04-12T06:58:27.334Z,861.00
2023-04-12T06:59:27.410Z,863.00
2023-04-12T07:00:27.450Z,869.00
2023-04-12T07:01:27.579Z,877.00
2023-04-12T07:02:27.594Z,880.00
2023-04-12T07:03:27.635Z,883.00
2023-04-12T07:04:27.625Z,879.00
2023-04-12T07:05:27.682Z,875.00
2023-04-12T07:06:27.689Z,877.00
2023-04-12T07:07:27.838Z,878.00
2023-04-12T07:08:29.685Z,877.00
2023-04-12T07:09:27.808Z,871.00
2023-04-12T07:10:27.826Z,864.00
2023-04-12T07:11:27.895Z,858.00
2023-04-12T07:12:27.914Z,850.00
2023-04-12T07:13:28.040Z,850.00
2023-04-12T07:14:27.975Z,841.00
2023-04-12T07:15:28.025Z,839.00
2023-04-12T07:16:28.069Z,832.00
2023-04-12T07:17:28.378Z,824.00
2023-04-12T07:18:28.132Z,820.00
2023-04-12T07:19:28.348Z,811.00
2023-04-12T07:20:28.177Z,805.00
2023-04-12T07:21:28.254Z,797.00
2023-04-12T07:22:28.253Z,792.00
2023-04-12T07:23:28.290Z,783.00
2023-04-12T07:24:28.307Z,777.00
2023-04-12T07:25:28.317Z,774.00
2023-04-12T07:26:28.353Z,712.00
2023-04-12T07:27:28.396Z,727.00
2023-04-12T07:28:28.420Z,743.00
2023-04-12T07:29:28.455Z,758.00
2023-04-12T07:30:28.498Z,805.00
2023-04-12T07:31:28.569Z,834.00
2023-04-12T07:32:28.663Z,839.00
2023-04-12T07:33:28.588Z,830.00
2023-04-12T07:34:28.726Z,753.00
2023-04-12T07:35:28.623Z,712.00
2023-04-12T07:36:28.649Z,696.00
2023-04-12T07:37:28.700Z,657.00
2023-04-12T07:38:28.765Z,640.00
2023-04-12T07:39:28.961Z,634.00
2023-04-12T07:40:28.796Z,622.00
2023-04-12T07:41:28.811Z,581.00
2023-04-12T07:42:28.837Z,597.00
2023-04-12T07:43:28.868Z,605.00
2023-04-12T07:44:28.879Z,600.00
2023-04-12T07:45:29.002Z,599.00
2023-04-12T07:46:28.988Z,604.00
2023-04-12T07:47:28.992Z,636.00
2023-04-12T07:48:29.018Z,638.00
2023-04-12T07:49:29.068Z,625.00
2023-04-12T07:50:29.169Z,601.00
2023-04-12T07:51:29.189Z,609.00
2023-04-12T07:52:29.236Z,603.00
2023-04-12T07:53:29.308Z,603.00
2023-04-12T07:54:29.343Z,609.00
2023-04-12T07:55:29.393Z,604.00
2023-04-12T07:56:29.468Z,599.00
2023-04-12T07:57:29.453Z,601.00
2023-04-12T07:58:29.488Z,647.00
2023-04-12T07:59:29.526Z,676.00
2023-04-12T08:00:29.574Z,670.00
2023-04-12T08:01:29.571Z,665.00
2023-04-12T08:02:29.687Z,663.00
2023-04-12T08:03:29.706Z,656.00
2023-04-12T08:04:29.742Z,656.00
2023-04-12T08:05:29.776Z,651.00
2023-04-12T08:06:31.811Z,642.00
2023-04-12T08:07:29.844Z,637.00
2023-04-12T08:08:29.636Z,630.00
2023-04-12T08:09:29.672Z,619.00
2023-04-12T08:10:29.652Z,623.00
2023-04-12T08:11:29.623Z,621.00
2023-04-12T08:12:29.673Z,651.00
2023-04-12T08:13:29.594Z,637.00
2023-04-12T08:14:29.663Z,745.00
2023-04-12T08:15:29.669Z,688.00
2023-04-12T08:16:29.585Z,657.00
2023-04-12T08:17:29.612Z,641.00
2023-04-12T08:18:29.564Z,657.00
2023-04-12T08:19:29.867Z,658.00
2023-04-12T08:20:29.552Z,643.00
2023-04-12T08:21:29.551Z,647.00
2023-04-12T08:22:29.868Z,647.00
2023-04-12T08:23:29.521Z,661.00
2023-04-12T08:24:29.530Z,675.00
2023-04-12T08:25:29.534Z,689.00
2023-04-12T08:26:29.501Z,721.00
2023-04-12T08:27:29.523Z,719.00
2023-04-12T08:28:29.494Z,729.00
2023-04-12T08:29:29.489Z,763.00
2023-04-12T08:30:29.481Z,778.00
2023-04-12T08:31:29.487Z,790.00
2023-04-12T08:32:29.468Z,855.00
2023-04-12T08:33:29.482Z,847.00
2023-04-12T08:34:29.439Z,850.00
2023-04-12T08:35:29.524Z,844.00
2023-04-12T08:36:29.436Z,864.00
2023-04-12T08:37:29.448Z,883.00
2023-04-12T08:38:44.209Z,878.00
2023-04-12T08:39:30.428Z,886.00
2023-04-12T08:40:29.408Z,897.00
2023-04-12T08:41:29.393Z,946.00
2023-04-12T08:42:29.386Z,944.00
2023-04-12T08:43:29.378Z,938.00
2023-04-12T08:44:29.359Z,863.00
2023-04-12T08:45:29.355Z,731.00
2023-04-12T08:46:29.400Z,728.00
2023-04-12T08:47:29.363Z,611.00
2023-04-12T08:48:29.349Z,605.00
2023-04-12T08:49:29.408Z,598.00
2023-04-12T08:50:29.349Z,584.00
2023-04-12T08:51:29.338Z,597.00
2023-04-12T08:52:29.313Z,585.00
2023-04-12T08:53:29.296Z,580.00
2023-04-12T08:54:29.336Z,576.00
2023-04-12T08:55:29.377Z,575.00
2023-04-12T08:56:29.425Z,576.00
2023-04-12T08:57:31.236Z,576.00
2023-04-12T08:58:29.529Z,571.00
2023-04-12T08:59:29.525Z,570.00
2023-04-12T09:00:29.557Z,570.00
2023-04-12T09:01:29.657Z,565.00
2023-04-12T09:02:29.805Z,561.00
2023-04-12T09:03:31.959Z,557.00
2023-04-12T09:04:29.773Z,556.00
2023-04-12T09:05:29.749Z,555.00
2023-04-12T09:06:29.673Z,552.00
2023-04-12T09:07:29.654Z,550.00
2023-04-12T09:08:29.894Z,549.00
2023-04-12T09:09:29.658Z,549.00
2023-04-12T09:10:29.876Z,548.00
2023-04-12T09:11:29.639Z,547.00
2023-04-12T09:12:29.624Z,547.00
2023-04-12T09:13:29.611Z,544.00
2023-04-12T09:14:29.599Z,545.00
2023-04-12T09:15:29.608Z,548.00
2023-04-12T09:16:29.635Z,543.00
2023-04-12T09:17:29.591Z,533.00
2023-04-12T09:18:29.586Z,523.00
2023-04-12T09:19:29.580Z,505.00
2023-04-12T09:20:29.606Z,493.00
2023-04-12T09:21:29.546Z,482.00
2023-04-12T09:22:29.533Z,474.00
2023-04-12T09:23:29.577Z,466.00
2023-04-12T09:24:29.523Z,463.00
2023-04-12T09:25:29.884Z,465.00
2023-04-12T09:26:29.503Z,464.00
2023-04-12T09:27:29.525Z,462.00
2023-04-12T09:28:29.493Z,463.00
2023-04-12T09:29:29.489Z,465.00
2023-04-12T09:30:29.505Z,468.00
2023-04-12T09:31:29.524Z,473.00
2023-04-12T09:32:29.526Z,499.00
2023-04-12T09:33:29.487Z,516.00
2023-04-12T09:34:29.464Z,527.00
2023-04-12T09:35:29.460Z,529.00
2023-04-12T09:36:29.468Z,526.00
2023-04-12T09:37:29.452Z,525.00
2023-04-12T09:38:29.438Z,526.00
2023-04-12T09:39:29.441Z,538.00
2023-04-12T09:40:29.429Z,552.00
2023-04-12T09:41:29.423Z,572.00
2023-04-12T09:42:33.915Z,585.00
2023-04-12T09:43:30.434Z,600.00
2023-04-12T09:44:29.383Z,611.00
2023-04-12T09:45:29.389Z,623.00
2023-04-12T09:46:29.492Z,637.00
2023-04-12T09:47:29.362Z,648.00
2023-04-12T09:48:29.343Z,666.00
2023-04-12T09:49:29.383Z,676.00
2023-04-12T09:50:29.508Z,680.00
2023-04-12T09:51:29.390Z,684.00
2023-04-12T09:52:30.209Z,684.00
2023-04-12T09:53:29.625Z,687.00
2023-04-12T09:54:29.631Z,687.00
2023-04-12T09:55:29.520Z,689.00
2023-04-12T09:56:29.502Z,685.00
2023-04-12T09:57:29.496Z,679.00
2023-04-12T09:58:31.338Z,668.00
2023-04-12T09:59:29.474Z,661.00
2023-04-12T10:00:29.508Z,664.00
2023-04-12T10:01:29.522Z,662.00
2023-04-12T10:02:29.659Z,663.00
2023-04-12T10:03:29.626Z,662.00
2023-04-12T10:04:29.797Z,662.00
2023-04-12T10:05:29.706Z,664.00
2023-04-12T10:06:29.501Z,663.00
2023-04-12T10:07:29.493Z,662.00
2023-04-12T10:08:29.481Z,662.00
2023-04-12T10:09:29.527Z,665.00
2023-04-12T10:10:29.938Z,663.00
2023-04-12T10:11:29.488Z,662.00
2023-04-12T10:12:29.502Z,664.00
2023-04-12T10:13:29.911Z,666.00
2023-04-12T10:14:29.491Z,661.00
2023-04-12T10:15:29.516Z,661.00
2023-04-12T10:16:29.521Z,662.00
2023-04-12T10:17:29.554Z,663.00
2023-04-12T10:18:29.464Z,665.00
2023-04-12T10:19:29.500Z,667.00
2023-04-12T10:20:29.926Z,669.00
2023-04-12T10:21:29.485Z,668.00
2023-04-12T10:22:29.489Z,597.00
2023-04-12T10:23:29.546Z,621.00
2023-04-12T10:24:29.495Z,627.00
2023-04-12T10:25:29.495Z,543.00
2023-04-12T10:26:29.574Z,611.00
2023-04-12T10:27:29.578Z,635.00
2023-04-12T10:28:29.653Z,649.00
2023-04-12T10:29:29.686Z,652.00
2023-04-12T10:30:29.714Z,647.00
2023-04-12T10:31:29.895Z,644.00
2023-04-12T10:32:29.868Z,645.00
2023-04-12T10:33:29.926Z,642.00
2023-04-12T10:34:29.930Z,638.00
2023-04-12T10:35:30.017Z,608.00
2023-04-12T10:36:30.129Z,598.00
2023-04-12T10:37:30.065Z,602.00
2023-04-12T10:38:30.127Z,599.00
2023-04-12T10:39:30.181Z,600.00
2023-04-12T10:40:30.236Z,611.00
2023-04-12T10:41:30.436Z,618.00
2023-04-12T10:42:30.320Z,614.00
2023-04-12T10:43:30.479Z,603.00
2023-04-12T10:44:30.366Z,612.00
2023-04-12T10:45:30.428Z,617.00
2023-04-12T10:46:31.045Z,623.00
2023-04-12T10:47:30.655Z,623.00
2023-04-12T10:48:30.549Z,628.00
2023-04-12T10:49:30.602Z,637.00
2023-04-12T10:50:30.726Z,675.00
2023-04-12T10:51:30.723Z,678.00
2023-04-12T10:52:30.726Z,651.00
2023-04-12T10:53:30.782Z,642.00
2023-04-12T10:54:30.822Z,627.00
2023-04-12T10:55:30.888Z,619.00
2023-04-12T10:56:32.462Z,616.00
2023-04-12T10:57:31.040Z,614.00
2023-04-12T10:58:31.035Z,476.00
2023-04-12T10:59:44.929Z,455.00
2023-04-12T11:00:32.259Z,488.00
2023-04-12T11:01:31.641Z,513.00
2023-04-12T11:02:31.212Z,536.00
2023-04-12T11:03:31.135Z,540.00
2023-04-12T11:04:31.183Z,547.00
2023-04-12T11:05:31.164Z,551.00
2023-04-12T11:06:31.031Z,553.00
2023-04-12T11:07:31.003Z,547.00
2023-04-12T11:08:31.050Z,535.00
2023-04-12T11:09:31.003Z,527.00
2023-04-12T11:10:31.010Z,525.00
2023-04-12T11:11:31.424Z,529.00
2023-04-12T11:12:30.972Z,533.00
2023-04-12T11:13:30.971Z,630.00
2023-04-12T11:14:30.984Z,613.00
2023-04-12T11:15:30.994Z,609.00
2023-04-12T11:16:31.571Z,603.00
2023-04-12T11:17:31.075Z,600.00
2023-04-12T11:18:31.491Z,600.00
2023-04-12T11:19:31.038Z,594.00
2023-04-12T11:20:31.036Z,595.00
2023-04-12T11:21:31.464Z,590.00
2023-04-12T11:22:31.045Z,578.00
2023-04-12T11:23:31.069Z,554.00
2023-04-12T11:24:31.025Z,553.00
2023-04-12T11:25:31.007Z,550.00
2023-04-12T11:26:31.003Z,547.00
2023-04-12T11:27:31.022Z,547.00
2023-04-12T11:28:33.119Z,548.00
2023-04-12T11:29:31.046Z,549.00
2023-04-12T11:30:31.034Z,551.00
2023-04-12T11:31:31.074Z,550.00
2023-04-12T11:32:31.080Z,549.00
2023-04-12T11:33:31.031Z,548.00
2023-04-12T11:34:30.999Z,549.00
2023-04-12T11:35:31.007Z,549.00
2023-04-12T11:36:31.016Z,547.00
2023-04-12T11:37:30.985Z,544.00
2023-04-12T11:38:30.968Z,541.00
2023-04-12T11:39:32.118Z,539.00
2023-04-12T11:40:30.963Z,537.00
2023-04-12T11:41:30.970Z,533.00
2023-04-12T11:42:31.042Z,533.00
2023-04-12T11:43:31.169Z,534.00
2023-04-12T11:44:40.727Z,531.00
2023-04-12T11:45:32.224Z,530.00
2023-04-12T11:46:31.175Z,529.00
2023-04-12T11:47:31.174Z,528.00
2023-04-12T11:48:31.122Z,525.00
2023-04-12T11:49:31.088Z,523.00
2023-04-12T11:50:31.273Z,518.00
2023-04-12T11:51:32.601Z,514.00
2023-04-12T11:52:31.049Z,509.00
2023-04-12T11:53:31.048Z,506.00
2023-04-12T11:54:31.031Z,506.00
2023-04-12T11:55:31.040Z,505.00
2023-04-12T11:56:31.014Z,502.00
2023-04-12T11:57:31.181Z,502.00
2023-04-12T11:58:31.105Z,500.00
2023-04-12T11:59:31.124Z,497.00
2023-04-12T12:00:31.158Z,497.00
2023-04-12T12:01:31.290Z,493.00
2023-04-12T12:02:35.854Z,488.00
2023-04-12T12:03:32.420Z,480.00
2023-04-12T12:04:31.484Z,471.00
2023-04-12T12:05:31.327Z,472.00
2023-04-12T12:06:31.509Z,472.00
2023-04-12T12:07:31.466Z,474.00
2023-04-12T12:08:31.213Z,477.00
2023-04-12T12:09:31.199Z,547.00
2023-04-12T12:10:42.103Z,558.00
2023-04-12T12:11:32.172Z,564.00
2023-04-12T12:12:31.195Z,572.00
2023-04-12T12:13:31.196Z,580.00
2023-04-12T12:14:31.152Z,587.00
2023-04-12T12:15:31.238Z,590.00
2023-04-12T12:16:31.246Z,595.00
2023-04-12T12:17:31.180Z,599.00
2023-04-12T12:18:31.182Z,604.00
2023-04-12T12:19:31.122Z,614.00
2023-04-12T12:20:31.094Z,618.00
2023-04-12T12:21:31.089Z,625.00
2023-04-12T12:22:31.075Z,631.00
2023-04-12T12:23:31.065Z,638.00
2023-04-12T12:24:31.075Z,647.00
2023-04-12T12:25:31.052Z,652.00
2023-04-12T12:26:31.067Z,656.00
2023-04-12T12:27:31.084Z,658.00
2023-04-12T12:28:31.048Z,662.00